createdAt,value
2018-11-04T00:00:55.414Z,52.59
2018-11-04T00:01:58.795Z,52.13
2018-11-04T00:03:02.196Z,52.71
2018-11-04T00:04:05.848Z,52.59
2018-11-04T00:05:09.259Z,52.51
2018-11-04T00:06:12.674Z,53.19
2018-11-04T00:07:16.112Z,53.27
2018-11-04T00:08:19.565Z,52.62
2018-11-04T00:09:23.019Z,53.17
2018-11-04T00:10:26.422Z,53.35
2018-11-04T00:11:29.863Z,53.34
2018-11-04T00:12:33.384Z,53.82
2018-11-04T00:13:36.889Z,53.37
2018-11-04T00:14:40.293Z,53.68
2018-11-04T00:15:43.715Z,53.85
2018-11-04T00:16:47.118Z,53.54
2018-11-04T00:17:50.519Z,53.42
2018-11-04T00:18:53.907Z,53.93
2018-11-04T00:19:57.314Z,54.06
2018-11-04T00:21:00.694Z,54.42
2018-11-04T00:22:04.179Z,53.67
2018-11-04T00:23:07.630Z,53.72
2018-11-04T00:24:11.061Z,54.67
2018-11-04T00:25:15.084Z,54.87
2018-11-04T00:26:18.473Z,54.46
2018-11-04T00:27:21.964Z,55.09
2018-11-04T00:28:26.872Z,54.79
2018-11-04T00:29:30.324Z,55.19
2018-11-04T00:30:33.780Z,54.66
2018-11-04T00:31:37.189Z,54.78
2018-11-04T00:32:41.049Z,55.19
2018-11-04T00:33:44.459Z,55.19
2018-11-04T00:34:47.896Z,54.53
2018-11-04T00:35:51.387Z,55.05
2018-11-04T00:36:54.817Z,54.98
2018-11-04T00:37:58.203Z,55.47
2018-11-04T00:39:01.688Z,54.94
2018-11-04T00:40:05.578Z,54.81
2018-11-04T00:41:08.996Z,55.16
2018-11-04T00:42:12.450Z,54.80
2018-11-04T00:43:15.882Z,55.17
2018-11-04T00:44:19.312Z,55.68
2018-11-04T00:45:22.801Z,55.51
2018-11-04T00:46:26.166Z,55.80
2018-11-04T00:47:29.691Z,55.54
2018-11-04T00:48:33.149Z,55.29
2018-11-04T00:49:36.530Z,55.95
2018-11-04T00:50:39.912Z,55.79
2018-11-04T00:51:43.302Z,55.86
2018-11-04T00:52:46.677Z,55.82
2018-11-04T00:53:50.079Z,55.63
2018-11-04T00:54:53.494Z,55.26
2018-11-04T00:55:56.861Z,55.53
2018-11-04T00:57:00.315Z,55.53
2018-11-04T00:58:03.729Z,55.81
2018-11-04T00:59:07.227Z,56.00
2018-11-04T01:00:15.739Z,55.35
2018-11-04T01:01:19.187Z,56.38
2018-11-04T01:02:22.631Z,56.36
2018-11-04T01:03:26.052Z,55.85
2018-11-04T01:04:29.470Z,56.14
2018-11-04T01:05:32.925Z,56.06
2018-11-04T01:06:36.350Z,56.45
2018-11-04T01:07:40.324Z,56.68
2018-11-04T01:08:43.733Z,56.10
2018-11-04T01:09:47.156Z,56.62
2018-11-04T01:10:50.565Z,56.40
2018-11-04T01:11:53.997Z,55.93
2018-11-04T01:12:57.500Z,56.74
2018-11-04T01:14:00.906Z,56.05
2018-11-04T01:15:04.591Z,56.35
2018-11-04T01:16:08.094Z,56.11
2018-11-04T01:17:11.583Z,55.80
2018-11-04T01:18:15.056Z,56.85
2018-11-04T01:19:18.429Z,56.49
2018-11-04T01:20:22.125Z,55.96
2018-11-04T01:21:25.514Z,56.24
2018-11-04T01:22:29.117Z,56.77
2018-11-04T01:23:32.501Z,56.63
2018-11-04T01:24:35.940Z,56.15
2018-11-04T01:25:39.362Z,56.28
2018-11-04T01:26:42.939Z,56.29
2018-11-04T01:27:46.371Z,56.38
2018-11-04T01:28:49.761Z,56.98
2018-11-04T01:29:53.186Z,56.79
2018-11-04T01:30:56.570Z,56.20
2018-11-04T01:32:00.238Z,56.30
2018-11-04T01:33:03.690Z,56.52
2018-11-04T01:34:07.422Z,56.86
2018-11-04T01:35:10.824Z,56.43
2018-11-04T01:36:14.236Z,56.47
2018-11-04T01:37:17.647Z,56.86
2018-11-04T01:38:21.040Z,56.71
2018-11-04T01:39:24.460Z,56.92
2018-11-04T01:40:27.871Z,57.31
2018-11-04T01:41:31.281Z,56.94
2018-11-04T01:42:34.786Z,57.06
2018-11-04T01:43:38.229Z,56.89
2018-11-04T01:44:41.625Z,57.05
2018-11-04T01:45:45.056Z,57.26
2018-11-04T01:46:48.442Z,56.67
2018-11-04T01:47:51.829Z,57.08
2018-11-04T01:48:55.287Z,56.73
2018-11-04T01:49:58.677Z,56.85
2018-11-04T01:51:02.137Z,57.17
2018-11-04T01:52:06.083Z,56.79
2018-11-04T01:53:09.603Z,56.84
2018-11-04T01:54:13.272Z,56.68
2018-11-04T01:55:16.669Z,57.12
2018-11-04T01:56:20.094Z,57.36
2018-11-04T01:57:23.555Z,57.22
2018-11-04T01:58:26.995Z,57.26
2018-11-04T01:59:30.423Z,57.90
2018-11-04T02:00:33.883Z,57.90
2018-11-04T02:01:37.292Z,58.08
2018-11-04T02:02:41.034Z,58.20
2018-11-04T02:03:44.510Z,57.67
2018-11-04T02:04:47.935Z,58.01
2018-11-04T02:05:51.335Z,57.96
2018-11-04T02:06:54.710Z,57.94
2018-11-04T02:07:58.137Z,58.35
2018-11-04T02:09:01.520Z,57.80
2018-11-04T02:10:05.481Z,58.26
2018-11-04T02:11:08.888Z,58.40
2018-11-04T02:12:12.328Z,58.55
2018-11-04T02:13:15.724Z,58.25
2018-11-04T02:14:19.137Z,58.16
2018-11-04T02:15:22.569Z,58.68
2018-11-04T02:16:25.978Z,58.14
2018-11-04T02:17:29.392Z,58.30
2018-11-04T02:18:32.856Z,58.78
2018-11-04T02:19:36.733Z,58.37
2018-11-04T02:20:40.246Z,58.65
2018-11-04T02:21:43.641Z,58.88
2018-11-04T02:22:47.010Z,58.34
2018-11-04T02:23:50.523Z,58.69
2018-11-04T02:24:53.960Z,58.27
2018-11-04T02:25:57.402Z,58.13
2018-11-04T02:27:00.843Z,58.05
2018-11-04T02:28:04.351Z,58.44
2018-11-04T02:29:07.943Z,58.69
2018-11-04T02:30:12.968Z,58.78
2018-11-04T02:31:16.401Z,58.32
2018-11-04T02:32:20.131Z,58.77
2018-11-04T02:33:23.570Z,58.29
2018-11-04T02:34:27.026Z,58.24
2018-11-04T02:35:30.429Z,58.97
2018-11-04T02:36:34.456Z,58.85
2018-11-04T02:37:37.963Z,58.80
2018-11-04T02:38:41.391Z,59.06
2018-11-04T02:39:44.861Z,58.96
2018-11-04T02:40:48.241Z,59.14
2018-11-04T02:41:51.652Z,58.93
2018-11-04T02:42:55.074Z,58.55
2018-11-04T02:43:58.455Z,59.08
2018-11-04T02:45:01.840Z,58.77
2018-11-04T02:46:06.350Z,59.11
2018-11-04T02:47:09.937Z,59.10
2018-11-04T02:48:13.262Z,59.18
2018-11-04T02:49:16.692Z,59.23
2018-11-04T02:50:20.119Z,59.18
2018-11-04T02:51:23.551Z,58.83
2018-11-04T02:52:26.958Z,59.10
2018-11-04T02:53:30.401Z,59.34
2018-11-04T02:54:33.835Z,59.51
2018-11-04T02:55:37.260Z,59.30
2018-11-04T02:56:40.688Z,59.23
2018-11-04T02:57:44.086Z,58.98
2018-11-04T02:58:47.450Z,59.17
2018-11-04T02:59:50.890Z,58.80
2018-11-04T03:00:54.315Z,58.83
2018-11-04T03:01:57.764Z,58.94
2018-11-04T03:03:01.162Z,59.22
2018-11-04T03:04:04.969Z,59.10
2018-11-04T03:05:09.599Z,59.36
2018-11-04T03:06:13.036Z,58.97
2018-11-04T03:07:16.473Z,59.55
2018-11-04T03:08:19.929Z,59.22
2018-11-04T03:09:23.345Z,59.59
2018-11-04T03:10:26.721Z,59.43
2018-11-04T03:11:30.164Z,59.41
2018-11-04T03:12:33.845Z,59.13
2018-11-04T03:13:37.321Z,58.87
2018-11-04T03:14:40.731Z,58.76
2018-11-04T03:15:44.219Z,59.61
2018-11-04T03:16:47.703Z,59.62
2018-11-04T03:17:51.081Z,59.36
2018-11-04T03:18:54.430Z,59.07
2018-11-04T03:19:57.912Z,59.40
2018-11-04T03:21:01.412Z,59.21
2018-11-04T03:22:05.380Z,59.02
2018-11-04T03:23:08.992Z,59.47
2018-11-04T03:24:12.589Z,59.34
2018-11-04T03:25:15.989Z,59.60
2018-11-04T03:26:19.386Z,59.65
2018-11-04T03:27:22.811Z,59.33
2018-11-04T03:28:26.245Z,59.00
2018-11-04T03:29:29.645Z,59.30
2018-11-04T03:30:33.224Z,59.58
2018-11-04T03:31:36.735Z,59.05
2018-11-04T03:32:40.204Z,59.08
2018-11-04T03:33:43.795Z,58.85
2018-11-04T03:34:47.201Z,59.52
2018-11-04T03:35:50.621Z,59.17
2018-11-04T03:36:54.120Z,59.08
2018-11-04T03:37:57.586Z,59.50
2018-11-04T03:39:01.026Z,59.15
2018-11-04T03:40:04.858Z,59.78
2018-11-04T03:41:08.270Z,59.34
2018-11-04T03:42:11.665Z,59.20
2018-11-04T03:43:15.059Z,59.22
2018-11-04T03:44:18.471Z,59.33
2018-11-04T03:45:21.898Z,59.30
2018-11-04T03:46:25.296Z,59.84
2018-11-04T03:47:28.695Z,60.03
2018-11-04T03:48:32.168Z,60.14
2018-11-04T03:49:35.640Z,60.11
2018-11-04T03:50:39.068Z,60.23
2018-11-04T03:51:42.465Z,59.65
2018-11-04T03:52:45.887Z,59.94
2018-11-04T03:53:49.267Z,59.71
2018-11-04T03:54:52.653Z,59.60
2018-11-04T03:55:56.089Z,60.32
2018-11-04T03:56:59.486Z,60.47
2018-11-04T03:58:03.336Z,60.61
2018-11-04T03:59:06.926Z,60.76
2018-11-04T04:00:12.077Z,60.47
2018-11-04T04:01:15.495Z,60.56
2018-11-04T04:02:18.906Z,60.93
2018-11-04T04:03:22.416Z,60.91
2018-11-04T04:04:25.838Z,60.96
2018-11-04T04:05:29.373Z,60.98
2018-11-04T04:06:32.776Z,60.96
2018-11-04T04:07:36.234Z,61.27
2018-11-04T04:08:39.690Z,61.23
2018-11-04T04:09:43.084Z,60.96
2018-11-04T04:10:46.537Z,61.17
2018-11-04T04:11:49.929Z,60.60
2018-11-04T04:12:53.336Z,60.56
2018-11-04T04:13:56.729Z,60.85
2018-11-04T04:15:00.088Z,61.02
2018-11-04T04:16:03.536Z,60.81
2018-11-04T04:17:07.041Z,60.29
2018-11-04T04:18:10.788Z,60.28
2018-11-04T04:19:14.156Z,60.71
2018-11-04T04:20:17.554Z,60.16
2018-11-04T04:21:20.960Z,60.68
2018-11-04T04:22:24.365Z,60.11
2018-11-04T04:23:27.921Z,60.61
2018-11-04T04:24:31.331Z,61.13
2018-11-04T04:25:35.342Z,61.35
2018-11-04T04:26:39.097Z,61.73
2018-11-04T04:27:42.484Z,60.95
2018-11-04T04:28:45.889Z,61.73
2018-11-04T04:29:49.271Z,61.58
2018-11-04T04:30:52.670Z,61.37
2018-11-04T04:31:56.091Z,60.80
2018-11-04T04:32:59.478Z,61.48
2018-11-04T04:34:02.887Z,60.93
2018-11-04T04:35:07.501Z,61.02
2018-11-04T04:36:10.874Z,61.18
2018-11-04T04:37:14.318Z,60.98
2018-11-04T04:38:17.733Z,60.99
2018-11-04T04:39:21.106Z,60.91
2018-11-04T04:40:24.528Z,61.41
2018-11-04T04:41:27.906Z,61.12
2018-11-04T04:42:31.312Z,61.05
2018-11-04T04:43:34.740Z,60.47
2018-11-04T04:44:38.155Z,60.59
2018-11-04T04:45:41.641Z,60.69
2018-11-04T04:46:45.021Z,61.35
2018-11-04T04:47:48.458Z,61.65
2018-11-04T04:48:51.977Z,61.51
2018-11-04T04:49:55.461Z,61.58
2018-11-04T04:50:58.891Z,61.62
2018-11-04T04:52:02.255Z,60.91
2018-11-04T04:53:06.028Z,61.08
2018-11-04T04:54:09.427Z,60.94
2018-11-04T04:55:12.811Z,60.77
2018-11-04T04:56:16.215Z,60.85
2018-11-04T04:57:19.611Z,61.07
2018-11-04T04:58:23.370Z,60.84
2018-11-04T04:59:26.741Z,60.87
2018-11-04T05:00:30.152Z,61.57
2018-11-04T05:01:33.583Z,61.36
2018-11-04T05:02:37.006Z,61.42
2018-11-04T05:03:40.436Z,61.39
2018-11-04T05:04:43.858Z,61.05
2018-11-04T05:05:47.291Z,61.47
2018-11-04T05:06:50.672Z,61.07
2018-11-04T05:07:54.116Z,60.82
2018-11-04T05:08:57.630Z,61.25
2018-11-04T05:10:01.046Z,61.25
2018-11-04T05:11:04.527Z,60.70
2018-11-04T05:12:07.966Z,61.07
2018-11-04T05:13:11.388Z,60.38
2018-11-04T05:14:14.812Z,60.81
2018-11-04T05:15:18.277Z,60.32
2018-11-04T05:16:21.831Z,60.53
2018-11-04T05:17:25.276Z,61.00
2018-11-04T05:18:28.686Z,60.99
2018-11-04T05:19:32.075Z,60.84
2018-11-04T05:20:35.476Z,61.03
2018-11-04T05:21:38.848Z,60.63
2018-11-04T05:22:42.485Z,60.66
2018-11-04T05:23:45.888Z,60.30
2018-11-04T05:24:49.288Z,60.50
2018-11-04T05:25:52.744Z,60.39
2018-11-04T05:26:56.122Z,60.97
2018-11-04T05:27:59.546Z,60.98
2018-11-04T05:29:03.028Z,60.98
2018-11-04T05:30:08.701Z,60.89
2018-11-04T05:31:12.114Z,61.17
2018-11-04T05:32:15.505Z,60.68
2018-11-04T05:33:18.940Z,61.23
2018-11-04T05:34:22.455Z,61.11
2018-11-04T05:35:25.942Z,61.05
2018-11-04T05:36:29.362Z,61.79
2018-11-04T05:37:32.766Z,61.83
2018-11-04T05:38:36.178Z,61.55
2018-11-04T05:39:39.671Z,61.53
2018-11-04T05:40:43.116Z,61.41
2018-11-04T05:41:46.559Z,61.88
2018-11-04T05:42:50.058Z,61.59
2018-11-04T05:43:53.556Z,61.56
2018-11-04T05:44:57.038Z,61.74
2018-11-04T05:46:00.420Z,61.86
2018-11-04T05:47:03.839Z,61.88
2018-11-04T05:48:07.239Z,61.58
2018-11-04T05:49:10.649Z,62.03
2018-11-04T05:50:14.033Z,61.47
2018-11-04T05:51:17.457Z,62.28
2018-11-04T05:52:21.362Z,62.09
2018-11-04T05:53:24.784Z,61.65
2018-11-04T05:54:28.171Z,62.37
2018-11-04T05:55:31.615Z,61.70
2018-11-04T05:56:35.292Z,61.93
2018-11-04T05:57:38.839Z,61.64
2018-11-04T05:58:42.395Z,62.34
2018-11-04T05:59:45.915Z,62.16
2018-11-04T06:00:49.373Z,61.85
2018-11-04T06:01:52.819Z,61.93
2018-11-04T06:02:56.192Z,62.40
2018-11-04T06:03:59.707Z,62.60
2018-11-04T06:05:03.169Z,62.07
2018-11-04T06:06:06.649Z,61.81
2018-11-04T06:07:10.558Z,62.40
2018-11-04T06:08:13.921Z,61.89
2018-11-04T06:09:17.360Z,61.98
2018-11-04T06:10:20.771Z,61.64
2018-11-04T06:11:24.243Z,62.32
2018-11-04T06:12:27.648Z,62.20
2018-11-04T06:13:31.040Z,62.19
2018-11-04T06:14:34.418Z,62.57
2018-11-04T06:15:38.040Z,62.27
2018-11-04T06:16:41.441Z,62.09
2018-11-04T06:17:44.940Z,62.62
2018-11-04T06:18:48.340Z,62.45
2018-11-04T06:19:51.755Z,62.34
2018-11-04T06:20:55.136Z,62.69
2018-11-04T06:21:58.700Z,62.32
2018-11-04T06:23:02.095Z,62.36
2018-11-04T06:24:05.791Z,61.76
2018-11-04T06:25:09.385Z,61.59
2018-11-04T06:26:12.836Z,61.76
2018-11-04T06:27:16.198Z,61.88
2018-11-04T06:28:19.700Z,61.75
2018-11-04T06:29:23.139Z,62.20
2018-11-04T06:30:26.692Z,62.00
2018-11-04T06:31:30.079Z,62.44
2018-11-04T06:32:33.461Z,62.34
2018-11-04T06:33:36.951Z,62.21
2018-11-04T06:34:40.367Z,62.51
2018-11-04T06:35:43.778Z,62.54
2018-11-04T06:36:47.204Z,62.29
2018-11-04T06:37:50.632Z,62.66
2018-11-04T06:38:54.040Z,62.64
2018-11-04T06:39:57.680Z,62.15
2018-11-04T06:41:01.119Z,62.84
2018-11-04T06:42:04.637Z,62.78
2018-11-04T06:43:08.071Z,62.68
2018-11-04T06:44:11.457Z,62.71
2018-11-04T06:45:14.884Z,62.48
2018-11-04T06:46:18.282Z,61.89
2018-11-04T06:47:21.733Z,62.44
2018-11-04T06:48:25.160Z,61.84
2018-11-04T06:49:28.611Z,62.23
2018-11-04T06:50:32.068Z,62.18
2018-11-04T06:51:35.633Z,62.74
2018-11-04T06:52:39.112Z,62.67
2018-11-04T06:53:42.506Z,62.37
2018-11-04T06:54:45.939Z,62.73
2018-11-04T06:55:49.379Z,62.14
2018-11-04T06:56:52.805Z,62.30
2018-11-04T06:57:56.226Z,62.33
2018-11-04T06:58:59.643Z,62.23
2018-11-04T07:00:03.181Z,62.60
2018-11-04T07:01:06.522Z,62.41
2018-11-04T07:02:09.954Z,62.26
2018-11-04T07:03:13.361Z,62.47
2018-11-04T07:04:25.528Z,62.31
2018-11-04T07:05:28.934Z,62.86
2018-11-04T07:06:32.344Z,62.17
2018-11-04T07:07:36.011Z,62.31
2018-11-04T07:08:39.417Z,62.56
2018-11-04T07:09:42.850Z,62.18
2018-11-04T07:10:46.264Z,62.33
2018-11-04T07:11:50.234Z,62.32
2018-11-04T07:12:53.620Z,62.87
2018-11-04T07:13:57.065Z,62.47
2018-11-04T07:15:00.480Z,62.51
2018-11-04T07:16:03.872Z,62.13
2018-11-04T07:17:07.267Z,62.26
2018-11-04T07:18:10.764Z,62.15
2018-11-04T07:19:14.827Z,62.12
2018-11-04T07:20:18.233Z,62.54
2018-11-04T07:21:21.633Z,62.20
2018-11-04T07:22:25.023Z,62.29
2018-11-04T07:23:28.412Z,61.87
2018-11-04T07:24:31.840Z,62.44
2018-11-04T07:25:35.291Z,62.57
2018-11-04T07:26:38.738Z,62.27
2018-11-04T07:27:42.118Z,62.34
2018-11-04T07:28:45.489Z,62.78
2018-11-04T07:29:48.883Z,62.43
2018-11-04T07:30:52.277Z,62.52
2018-11-04T07:31:55.690Z,62.70
2018-11-04T07:32:59.103Z,62.68
2018-11-04T07:34:02.515Z,62.46
2018-11-04T07:35:06.698Z,62.45
2018-11-04T07:36:10.104Z,62.51
2018-11-04T07:37:13.537Z,62.74
2018-11-04T07:38:16.901Z,62.14
2018-11-04T07:39:20.334Z,62.29
2018-11-04T07:40:23.793Z,62.33
2018-11-04T07:41:27.224Z,63.05
2018-11-04T07:42:30.758Z,62.58
2018-11-04T07:43:34.187Z,62.42
2018-11-04T07:44:37.811Z,61.75
2018-11-04T07:45:41.207Z,60.02
2018-11-04T07:46:44.590Z,58.66
2018-11-04T07:47:48.001Z,58.24
2018-11-04T07:48:51.446Z,57.85
2018-11-04T07:49:54.830Z,57.98
2018-11-04T07:50:58.247Z,57.09
2018-11-04T07:52:01.650Z,57.02
2018-11-04T07:53:05.501Z,56.83
2018-11-04T07:54:08.910Z,56.29
2018-11-04T07:55:12.311Z,56.37
2018-11-04T07:56:16.226Z,55.50
2018-11-04T07:57:19.893Z,55.75
2018-11-04T07:58:23.355Z,55.59
2018-11-04T07:59:26.745Z,55.88
2018-11-04T08:00:30.144Z,55.29
2018-11-04T08:01:33.711Z,55.85
2018-11-04T08:02:37.332Z,55.03
2018-11-04T08:03:40.768Z,55.08
2018-11-04T08:04:44.183Z,54.77
2018-11-04T08:05:47.628Z,55.07
2018-11-04T08:06:51.027Z,55.04
2018-11-04T08:07:54.446Z,55.80
2018-11-04T08:08:57.990Z,55.89
2018-11-04T08:10:01.429Z,55.62
2018-11-04T08:11:05.216Z,55.89
2018-11-04T08:12:08.931Z,55.88
2018-11-04T08:13:12.294Z,55.35
2018-11-04T08:14:15.684Z,55.36
2018-11-04T08:15:19.079Z,55.61
2018-11-04T08:16:22.489Z,55.35
2018-11-04T08:17:26.285Z,55.96
2018-11-04T08:18:29.680Z,55.13
2018-11-04T08:19:33.282Z,55.93
2018-11-04T08:20:36.900Z,55.66
2018-11-04T08:21:40.342Z,55.39
2018-11-04T08:22:43.757Z,55.39
2018-11-04T08:23:47.159Z,55.12
2018-11-04T08:24:51.376Z,55.52
2018-11-04T08:25:54.766Z,55.10
2018-11-04T08:26:58.227Z,54.86
2018-11-04T08:28:01.703Z,55.05
2018-11-04T08:29:05.207Z,55.69
2018-11-04T08:30:09.302Z,55.17
2018-11-04T08:31:12.707Z,55.31
2018-11-04T08:32:16.275Z,55.91
2018-11-04T08:33:20.015Z,55.24
2018-11-04T08:34:23.486Z,54.72
2018-11-04T08:35:26.920Z,54.62
2018-11-04T08:36:30.359Z,53.74
2018-11-04T08:37:33.989Z,54.22
2018-11-04T08:38:37.427Z,55.87
2018-11-04T08:39:41.082Z,56.96
2018-11-04T08:40:44.454Z,56.76
2018-11-04T08:41:47.893Z,57.15
2018-11-04T08:42:51.318Z,55.96
2018-11-04T08:43:54.693Z,55.42
2018-11-04T08:44:58.108Z,55.45
2018-11-04T08:46:01.654Z,55.55
2018-11-04T08:47:05.686Z,55.62
2018-11-04T08:48:09.503Z,56.19
2018-11-04T08:49:12.915Z,56.22
2018-11-04T08:50:16.325Z,56.28
2018-11-04T08:51:19.747Z,56.92
2018-11-04T08:52:23.165Z,57.06
2018-11-04T08:53:26.767Z,56.53
2018-11-04T08:54:30.156Z,56.70
2018-11-04T08:55:33.638Z,56.72
2018-11-04T08:56:37.063Z,56.49
2018-11-04T08:57:40.641Z,56.32
2018-11-04T08:58:44.067Z,55.57
2018-11-04T08:59:47.486Z,54.60
2018-11-04T09:00:50.941Z,54.79
2018-11-04T09:01:54.344Z,54.19
2018-11-04T09:02:57.939Z,54.55
2018-11-04T09:04:01.363Z,54.86
2018-11-04T09:05:05.215Z,54.96
2018-11-04T09:06:08.648Z,54.31
2018-11-04T09:07:12.063Z,54.62
2018-11-04T09:08:15.540Z,53.88
2018-11-04T09:09:18.955Z,53.89
2018-11-04T09:10:22.366Z,54.34
2018-11-04T09:11:25.775Z,54.32
2018-11-04T09:12:29.201Z,54.81
2018-11-04T09:13:32.676Z,54.71
2018-11-04T09:14:36.779Z,54.82
2018-11-04T09:15:40.211Z,54.37
2018-11-04T09:16:43.626Z,54.29
2018-11-04T09:17:47.019Z,54.35
2018-11-04T09:18:50.505Z,55.17
2018-11-04T09:19:53.892Z,55.11
2018-11-04T09:20:57.288Z,54.64
2018-11-04T09:22:00.949Z,54.77
2018-11-04T09:23:04.359Z,55.26
2018-11-04T09:24:07.933Z,55.29
2018-11-04T09:25:12.166Z,55.11
2018-11-04T09:26:15.617Z,55.42
2018-11-04T09:27:19.065Z,55.53
2018-11-04T09:28:22.571Z,54.99
2018-11-04T09:29:26.019Z,54.96
2018-11-04T09:30:29.425Z,55.58
2018-11-04T09:31:32.861Z,54.97
2018-11-04T09:32:36.474Z,55.73
2018-11-04T09:33:39.892Z,55.67
2018-11-04T09:34:43.477Z,55.71
2018-11-04T09:35:47.049Z,55.63
2018-11-04T09:36:50.368Z,55.30
2018-11-04T09:37:53.816Z,55.47
2018-11-04T09:38:57.284Z,55.15
2018-11-04T09:40:00.727Z,55.40
2018-11-04T09:41:04.201Z,55.42
2018-11-04T09:42:07.704Z,55.27
2018-11-04T09:43:11.269Z,55.20
2018-11-04T09:44:14.718Z,55.66
2018-11-04T09:45:18.133Z,55.86
2018-11-04T09:46:21.566Z,55.40
2018-11-04T09:47:25.044Z,56.08
2018-11-04T09:48:28.437Z,55.29
2018-11-04T09:49:31.999Z,55.67
2018-11-04T09:50:35.768Z,56.12
2018-11-04T09:51:43.068Z,55.69
2018-11-04T09:52:46.526Z,55.66
2018-11-04T09:53:50.480Z,55.96
2018-11-04T09:54:53.910Z,56.18
2018-11-04T09:55:57.357Z,55.46
2018-11-04T09:57:00.898Z,56.14
2018-11-04T09:58:04.339Z,55.79
2018-11-04T09:59:07.804Z,55.91
2018-11-04T10:00:12.405Z,55.75
2018-11-04T10:01:15.872Z,55.60
2018-11-04T10:02:19.680Z,56.21
2018-11-04T10:03:23.124Z,55.74
2018-11-04T10:04:26.569Z,55.64
2018-11-04T10:05:30.037Z,56.07
2018-11-04T10:06:33.473Z,55.54
2018-11-04T10:07:37.252Z,55.57
2018-11-04T10:08:40.671Z,55.83
2018-11-04T10:09:44.164Z,55.57
2018-11-04T10:10:47.571Z,56.11
2018-11-04T10:11:51.136Z,55.57
2018-11-04T10:12:54.535Z,55.74
2018-11-04T10:13:58.110Z,55.51
2018-11-04T10:15:01.552Z,55.54
2018-11-04T10:16:05.286Z,56.15
2018-11-04T10:17:08.691Z,55.64
2018-11-04T10:18:12.105Z,56.14
2018-11-04T10:19:15.758Z,55.62
2018-11-04T10:20:19.417Z,56.16
2018-11-04T10:21:22.584Z,56.20
2018-11-04T10:22:25.992Z,56.17
2018-11-04T10:23:29.478Z,56.18
2018-11-04T10:24:33.051Z,56.16
2018-11-04T10:25:36.471Z,56.02
2018-11-04T10:26:40.085Z,56.20
2018-11-04T10:27:43.622Z,55.48
2018-11-04T10:28:47.059Z,55.96
2018-11-04T10:29:50.453Z,55.73
2018-11-04T10:30:53.941Z,55.92
2018-11-04T10:31:57.383Z,56.01
2018-11-04T10:33:00.881Z,55.71
2018-11-04T10:34:05.040Z,56.36
2018-11-04T10:35:09.323Z,55.98
2018-11-04T10:36:12.808Z,55.98
2018-11-04T10:37:16.292Z,55.60
2018-11-04T10:38:19.751Z,55.73
2018-11-04T10:39:23.204Z,56.30
2018-11-04T10:40:26.625Z,56.20
2018-11-04T10:41:30.061Z,56.51
2018-11-04T10:42:33.555Z,56.12
2018-11-04T10:43:37.277Z,56.05
2018-11-04T10:44:40.960Z,56.32
2018-11-04T10:45:44.374Z,55.85
2018-11-04T10:46:47.875Z,56.29
2018-11-04T10:47:52.915Z,55.86
2018-11-04T10:48:56.348Z,55.95
2018-11-04T10:49:59.736Z,55.43
2018-11-04T10:51:03.218Z,55.30
2018-11-04T10:52:06.950Z,55.30
2018-11-04T10:53:10.386Z,55.42
2018-11-04T10:54:13.819Z,55.26
2018-11-04T10:55:17.280Z,55.58
2018-11-04T10:56:20.822Z,55.70
2018-11-04T10:57:24.409Z,55.14
2018-11-04T10:58:27.918Z,55.50
2018-11-04T10:59:31.482Z,54.99
2018-11-04T11:01:09.348Z,55.49
2018-11-04T11:02:12.829Z,55.04
2018-11-04T11:03:16.253Z,55.41
2018-11-04T11:04:19.756Z,55.68
2018-11-04T11:05:23.245Z,55.62
2018-11-04T11:06:26.865Z,55.09
2018-11-04T11:07:30.333Z,55.34
2018-11-04T11:08:34.388Z,55.32
2018-11-04T11:09:38.152Z,54.95
2018-11-04T11:10:41.794Z,55.12
2018-11-04T11:11:45.305Z,55.28
2018-11-04T11:12:49.129Z,55.14
2018-11-04T11:13:52.579Z,55.30
2018-11-04T11:14:56.040Z,55.12
2018-11-04T11:15:59.771Z,55.59
2018-11-04T11:17:03.206Z,55.16
2018-11-04T11:18:06.658Z,55.70
2018-11-04T11:19:10.120Z,55.75
2018-11-04T11:20:13.683Z,55.58
2018-11-04T11:21:17.281Z,55.28
2018-11-04T11:22:20.776Z,55.79
2018-11-04T11:23:24.387Z,55.23
2018-11-04T11:24:27.901Z,55.77
2018-11-04T11:25:31.305Z,55.25
2018-11-04T11:26:34.709Z,55.80
2018-11-04T11:27:38.233Z,55.81
2018-11-04T11:28:41.656Z,55.32
2018-11-04T11:29:45.165Z,55.21
2018-11-04T11:30:48.640Z,55.86
2018-11-04T11:31:52.010Z,55.69
2018-11-04T11:32:55.486Z,55.97
2018-11-04T11:33:58.904Z,55.90
2018-11-04T11:35:02.361Z,55.91
2018-11-04T11:36:06.288Z,55.42
2018-11-04T11:37:09.730Z,55.79
2018-11-04T11:38:13.120Z,55.28
2018-11-04T11:39:16.474Z,55.73
2018-11-04T11:40:20.176Z,55.91
2018-11-04T11:41:23.604Z,55.25
2018-11-04T11:42:27.090Z,55.43
2018-11-04T11:43:30.474Z,55.76
2018-11-04T11:44:34.418Z,55.41
2018-11-04T11:45:37.923Z,55.56
2018-11-04T11:46:41.525Z,55.21
2018-11-04T11:47:44.997Z,54.90
2018-11-04T11:48:48.474Z,54.41
2018-11-04T11:49:51.879Z,54.44
2018-11-04T11:50:55.368Z,54.04
2018-11-04T11:51:59.082Z,53.89
2018-11-04T11:53:02.513Z,54.37
2018-11-04T11:54:06.598Z,54.52
2018-11-04T11:55:10.023Z,54.11
2018-11-04T11:56:13.469Z,53.50
2018-11-04T11:57:16.983Z,53.09
2018-11-04T11:58:20.396Z,53.36
2018-11-04T11:59:23.914Z,53.30
2018-11-04T12:00:27.394Z,53.01
2018-11-04T12:01:30.857Z,53.12
2018-11-04T12:02:34.627Z,52.94
2018-11-04T12:03:38.082Z,53.09
2018-11-04T12:04:42.027Z,52.59
2018-11-04T12:05:46.771Z,52.11
2018-11-04T12:06:51.378Z,52.19
2018-11-04T12:07:56.153Z,51.73
2018-11-04T12:09:00.635Z,51.31
2018-11-04T12:10:04.797Z,51.86
2018-11-04T12:11:08.762Z,51.30
2018-11-04T12:12:13.440Z,51.25
2018-11-04T12:13:17.521Z,51.67
2018-11-04T12:14:21.027Z,51.32
2018-11-04T12:15:26.486Z,51.17
2018-11-04T12:16:30.156Z,51.30
2018-11-04T12:17:34.352Z,51.75
2018-11-04T12:18:38.668Z,50.95
2018-11-04T12:19:43.095Z,51.40
2018-11-04T12:20:47.297Z,50.65
2018-11-04T12:21:50.703Z,51.10
2018-11-04T12:22:54.380Z,51.58
2018-11-04T12:23:57.885Z,50.84
2018-11-04T12:25:01.548Z,51.63
2018-11-04T12:26:06.903Z,51.25
2018-11-04T12:27:10.332Z,51.43
2018-11-04T12:28:13.797Z,51.70
2018-11-04T12:29:17.360Z,51.46
2018-11-04T12:30:21.144Z,51.80
2018-11-04T12:31:24.537Z,51.84
2018-11-04T12:32:28.009Z,52.04
2018-11-04T12:33:31.559Z,51.30
2018-11-04T12:34:35.068Z,51.79
2018-11-04T12:35:38.623Z,51.72
2018-11-04T12:36:42.046Z,51.02
2018-11-04T12:37:45.720Z,51.17
2018-11-04T12:38:49.146Z,51.39
2018-11-04T12:39:52.560Z,51.73
2018-11-04T12:40:55.957Z,51.19
2018-11-04T12:41:59.356Z,51.45
2018-11-04T12:43:02.745Z,51.79
2018-11-04T12:44:06.744Z,52.00
2018-11-04T12:45:11.656Z,51.68
2018-11-04T12:46:15.144Z,51.36
2018-11-04T12:47:18.545Z,50.93
2018-11-04T12:48:21.967Z,51.21
2018-11-04T12:49:25.387Z,51.33
2018-11-04T12:50:28.795Z,51.29
2018-11-04T12:51:32.226Z,51.25
2018-11-04T12:52:35.659Z,51.98
2018-11-04T12:53:39.099Z,51.59
2018-11-04T12:54:42.583Z,51.23
2018-11-04T12:55:46.011Z,51.44
2018-11-04T12:56:49.504Z,51.74
2018-11-04T12:57:52.908Z,51.21
2018-11-04T12:58:56.346Z,51.74
2018-11-04T12:59:59.804Z,51.34
2018-11-04T13:01:03.297Z,51.83
2018-11-04T13:02:06.927Z,51.86
2018-11-04T13:03:10.299Z,52.24
2018-11-04T13:04:13.678Z,51.95
2018-11-04T13:05:17.273Z,51.89
2018-11-04T13:06:20.924Z,51.81
2018-11-04T13:07:24.307Z,51.47
2018-11-04T13:08:27.697Z,52.17
2018-11-04T13:09:31.130Z,51.58
2018-11-04T13:10:37.113Z,51.42
2018-11-04T13:11:42.702Z,51.29
2018-11-04T13:12:46.143Z,51.23
2018-11-04T13:13:49.602Z,51.17
2018-11-04T13:14:53.083Z,51.34
2018-11-04T13:15:56.513Z,51.09
2018-11-04T13:17:00.059Z,51.17
2018-11-04T13:18:03.458Z,51.51
2018-11-04T13:19:06.901Z,51.01
2018-11-04T13:20:10.344Z,51.11
2018-11-04T13:21:13.846Z,51.39
2018-11-04T13:22:17.312Z,51.69
2018-11-04T13:23:20.708Z,50.97
2018-11-04T13:24:24.248Z,51.56
2018-11-04T13:25:27.687Z,52.10
2018-11-04T13:26:31.163Z,51.38
2018-11-04T13:27:34.662Z,51.44
2018-11-04T13:28:38.155Z,50.27
2018-11-04T13:29:41.536Z,51.09
2018-11-04T13:30:44.977Z,51.07
2018-11-04T13:31:48.432Z,50.89
2018-11-04T13:32:51.882Z,50.23
2018-11-04T13:33:55.304Z,50.42
2018-11-04T13:34:58.701Z,50.51
2018-11-04T13:36:02.137Z,49.92
2018-11-04T13:37:06.383Z,50.43
2018-11-04T13:38:10.137Z,50.24
2018-11-04T13:39:13.594Z,50.14